Sims, Arkansas
Current Conditions -  °F | °C
As of 5:53 AM on Sunday 25 Jan 2015 (Local Time) from KMWT Reporting Station
Broken Clouds Broken Clouds  
Wind Chill: 50°   Ceiling: 7500
Heat Index: 50°   Visibility: 10mi
Dew Point: 35°   Wind: 6mph
Humidity: 57%   Direction: 290°WNW
Pressure: 29.77"   Gusts: NA
Location:  34.66°N, 93.69°W
Report Text: KMWT 251153Z AUTO 29005KT 10SM BKN075 10/02 A2977 RMK AO2 SLP084 T01000017 10100 20022 55018
Loading
Personal Weather Stations






























Interactive Weather Map New forecast layout! Learn more

10-Day Weather Forecast

Advertisements
Track Severe Weather on mobile